Terminal Aerodrome Forecast
Issued by NWS

Home | Current Version | Previous Version | Text Only | Print | Product List | Glossary On
Versions: 1 2 3 4 5 6 7 8 9 10 11 12 13 14 15 16 17 18 19 20 21 22 23 24 25 26
000
FTUS43 KPAH 221120
TAFOWB
TAF
KOWB 221120Z 2212/2312 30010KT P6SM VCSH BKN015
      TEMPO 2212/2214 -SHRA SCT015 BKN025
     FM221400 32012G20KT P6SM VCSH SCT025 BKN050
      TEMPO 2214/2216 BKN025
     FM221600 32013G20KT P6SM SKC
     FM230100 29003KT P6SM SKC=

USA.gov is the U.S. government's official web portal to all federal, state and local government web resources and services.